createdAt,value
2023-04-30T00:01:00.075Z,101114.50
2023-04-30T00:03:27.365Z,101117.84
2023-04-30T00:05:54.437Z,101110.06
2023-04-30T00:08:21.416Z,101107.50
2023-04-30T00:10:48.548Z,101106.81
2023-04-30T00:13:15.451Z,101102.94
2023-04-30T00:15:42.373Z,101103.41
2023-04-30T00:18:09.353Z,101108.34
2023-04-30T00:20:36.405Z,101097.53
2023-04-30T00:23:03.486Z,101094.50
2023-04-30T00:25:30.422Z,101090.31
2023-04-30T00:27:57.491Z,101089.44
2023-04-30T00:30:24.434Z,101076.63
2023-04-30T00:32:51.407Z,101067.66
2023-04-30T00:35:18.420Z,101063.78
2023-04-30T00:37:46.148Z,101071.75
2023-04-30T00:40:13.445Z,101074.28
2023-04-30T00:42:40.789Z,101065.84
2023-04-30T00:45:08.406Z,101066.84
2023-04-30T00:47:35.761Z,101065.84
2023-04-30T00:50:02.698Z,101074.09
2023-04-30T00:52:30.886Z,101074.28
2023-04-30T00:54:58.461Z,101065.47
2023-04-30T00:57:26.870Z,101059.03
2023-04-30T00:59:55.028Z,101056.34
2023-04-30T01:02:23.196Z,101059.19
2023-04-30T01:04:50.971Z,101054.63
2023-04-30T01:07:18.089Z,101048.53
2023-04-30T01:09:45.132Z,101042.25
2023-04-30T01:12:23.514Z,101033.81
2023-04-30T01:14:59.435Z,101028.22
2023-04-30T01:17:42.078Z,101033.97
2023-04-30T01:20:11.565Z,101026.84
2023-04-30T01:22:50.877Z,101017.38
2023-04-30T01:25:42.351Z,101014.31
2023-04-30T01:28:14.891Z,101007.53
2023-04-30T01:30:44.905Z,101002.13
2023-04-30T01:33:12.918Z,100993.66
2023-04-30T01:35:46.716Z,100998.06
2023-04-30T01:38:42.598Z,100994.16
2023-04-30T01:41:37.908Z,100991.94
2023-04-30T01:44:10.980Z,100987.03
2023-04-30T01:46:38.221Z,100987.16
2023-04-30T01:49:37.731Z,100990.56
2023-04-30T01:52:18.376Z,100986.50
2023-04-30T01:55:04.558Z,100979.41
2023-04-30T01:57:59.623Z,100982.22
2023-04-30T02:00:28.933Z,100977.81
2023-04-30T02:02:56.011Z,100982.41
2023-04-30T02:05:23.303Z,100981.00
2023-04-30T02:07:52.115Z,100973.59
2023-04-30T02:10:23.312Z,100969.88
2023-04-30T02:12:50.350Z,100980.69
2023-04-30T02:15:17.487Z,100981.00
2023-04-30T02:17:44.566Z,100984.72
2023-04-30T02:20:12.419Z,100979.31
2023-04-30T02:22:39.545Z,100981.31
2023-04-30T02:25:07.129Z,100977.94
2023-04-30T02:27:34.391Z,100963.03
2023-04-30T02:30:01.661Z,100975.03
2023-04-30T02:32:28.811Z,100975.50
2023-04-30T02:34:55.929Z,100980.06
2023-04-30T02:37:23.315Z,100984.63
2023-04-30T02:39:51.111Z,100994.34
2023-04-30T02:42:18.139Z,100997.22
2023-04-30T02:44:45.425Z,101000.78
2023-04-30T02:47:12.377Z,101008.03
2023-04-30T02:49:40.125Z,100999.41
2023-04-30T02:52:09.677Z,101002.41
2023-04-30T02:54:37.273Z,100996.69
2023-04-30T02:57:04.398Z,101000.41
2023-04-30T02:59:31.709Z,100998.69
2023-04-30T03:01:58.792Z,101005.81
2023-04-30T03:04:26.382Z,100998.38
2023-04-30T03:06:53.492Z,100997.69
2023-04-30T03:09:20.392Z,100998.38
2023-04-30T03:11:47.284Z,101007.19
2023-04-30T03:14:14.490Z,101008.88
2023-04-30T03:16:41.588Z,101014.66
2023-04-30T03:19:08.568Z,101013.47
2023-04-30T03:21:35.607Z,101013.00
2023-04-30T03:24:02.502Z,101014.56
2023-04-30T03:26:29.545Z,101013.38
2023-04-30T03:28:56.498Z,101015.75
2023-04-30T03:31:23.846Z,101004.94
2023-04-30T03:33:51.188Z,101003.09
2023-04-30T03:36:18.228Z,101000.72
2023-04-30T03:38:45.264Z,101008.47
2023-04-30T03:41:12.212Z,101012.72
2023-04-30T03:43:39.173Z,101016.41
2023-04-30T03:46:06.423Z,101001.91
2023-04-30T03:48:33.528Z,101001.56
2023-04-30T03:51:00.467Z,101005.78
2023-04-30T03:53:27.506Z,101003.28
2023-04-30T03:55:55.062Z,100998.41
2023-04-30T03:58:22.572Z,100998.25
2023-04-30T04:00:49.830Z,101003.66
2023-04-30T04:03:17.170Z,101000.94
2023-04-30T04:05:44.962Z,101000.94
2023-04-30T04:08:12.182Z,100998.06
2023-04-30T04:10:40.345Z,101001.47
2023-04-30T04:13:08.889Z,101001.47
2023-04-30T04:15:36.247Z,101003.78
2023-04-30T04:18:04.078Z,101007.72
2023-04-30T04:20:32.670Z,101011.44
2023-04-30T04:23:00.100Z,101012.28
2023-04-30T04:25:27.613Z,101008.72
2023-04-30T04:27:54.643Z,101017.53
2023-04-30T04:30:21.661Z,101016.97
2023-04-30T04:32:54.159Z,101017.16
2023-04-30T04:35:21.593Z,101011.75
2023-04-30T04:37:48.754Z,101012.06
2023-04-30T04:40:15.762Z,101009.53
2023-04-30T04:42:42.747Z,101015.22
2023-04-30T04:45:10.208Z,101012.72
2023-04-30T04:47:39.160Z,101018.88
2023-04-30T04:50:06.911Z,101016.50
2023-04-30T04:52:33.926Z,101015.66
2023-04-30T04:55:00.911Z,101022.38
2023-04-30T04:57:27.817Z,101023.38
2023-04-30T04:59:54.986Z,101021.53
2023-04-30T05:02:23.624Z,101022.53
2023-04-30T05:04:51.667Z,101023.72
2023-04-30T05:07:19.327Z,101024.38
2023-04-30T05:09:47.678Z,101018.00
2023-04-30T05:12:15.542Z,101020.34
2023-04-30T05:14:43.185Z,101031.88
2023-04-30T05:17:19.748Z,101035.94
2023-04-30T05:19:47.718Z,101043.72
2023-04-30T05:22:14.724Z,101041.72
2023-04-30T05:24:41.684Z,101055.47
2023-04-30T05:27:09.289Z,101059.38
2023-04-30T05:29:36.388Z,101060.06
2023-04-30T05:32:03.668Z,101057.78
2023-04-30T05:34:30.863Z,101060.84
2023-04-30T05:36:57.789Z,101058.19
2023-04-30T05:39:24.849Z,101066.38
2023-04-30T05:41:53.319Z,101066.72
2023-04-30T05:44:20.538Z,101065.06
2023-04-30T05:46:47.518Z,101072.84
2023-04-30T05:49:14.459Z,101065.47
2023-04-30T05:51:41.354Z,101067.19
2023-04-30T05:54:08.450Z,101065.88
2023-04-30T05:56:35.366Z,101064.38
2023-04-30T05:59:02.343Z,101059.38
2023-04-30T06:01:29.513Z,101075.19
2023-04-30T06:03:56.594Z,101070.84
2023-04-30T06:06:23.632Z,101070.59
2023-04-30T06:08:50.758Z,101074.88
2023-04-30T06:11:17.710Z,101079.94
2023-04-30T06:13:49.005Z,101080.34
2023-04-30T06:16:16.638Z,101072.84
2023-04-30T06:18:44.457Z,101085.34
2023-04-30T06:21:11.629Z,101096.78
2023-04-30T06:23:38.732Z,101107.59
2023-04-30T06:26:05.909Z,101106.00
2023-04-30T06:28:32.902Z,101105.03
2023-04-30T06:31:00.023Z,101108.19
2023-04-30T06:33:27.079Z,101106.97
2023-04-30T06:35:55.742Z,101100.84
2023-04-30T06:38:22.693Z,101107.97
2023-04-30T06:40:49.841Z,101106.53
2023-04-30T06:43:17.385Z,101112.00
2023-04-30T06:45:44.501Z,101117.06
2023-04-30T06:48:11.505Z,101121.72
2023-04-30T06:50:45.227Z,101123.59
2023-04-30T06:53:13.056Z,101128.63
2023-04-30T06:55:40.814Z,101125.84
2023-04-30T06:58:08.240Z,101140.00
2023-04-30T07:00:35.444Z,101145.59
2023-04-30T07:03:03.896Z,101153.06
2023-04-30T07:05:31.359Z,101159.50
2023-04-30T07:07:59.380Z,101164.41
2023-04-30T07:10:26.512Z,101161.13
2023-04-30T07:12:54.077Z,101157.53
2023-04-30T07:15:21.068Z,101166.06
2023-04-30T07:17:48.101Z,101163.44
2023-04-30T07:20:15.336Z,101170.56
2023-04-30T07:22:45.102Z,101165.34
2023-04-30T07:25:13.112Z,101162.06
2023-04-30T07:27:41.026Z,101170.56
2023-04-30T07:30:10.169Z,101151.88
2023-04-30T07:32:37.876Z,101146.75
2023-04-30T07:35:05.509Z,101158.91
2023-04-30T07:37:34.917Z,101156.13
2023-04-30T07:40:03.375Z,101167.94
2023-04-30T07:42:33.296Z,101161.31
2023-04-30T07:45:00.911Z,101163.34
2023-04-30T07:47:28.524Z,101174.00
2023-04-30T07:49:55.929Z,101176.47
2023-04-30T07:52:23.193Z,101174.44
2023-04-30T07:54:50.250Z,101175.31
2023-04-30T07:57:17.616Z,101172.72
2023-04-30T07:59:44.824Z,101181.97
2023-04-30T08:02:11.927Z,101180.06
2023-04-30T08:04:38.923Z,101180.56
2023-04-30T08:07:05.911Z,101184.44
2023-04-30T08:09:33.025Z,101181.78
2023-04-30T08:12:00.061Z,101189.59
2023-04-30T08:14:27.022Z,101190.19
2023-04-30T08:16:54.031Z,101191.41
2023-04-30T08:19:21.035Z,101191.53
2023-04-30T08:21:48.064Z,101196.09
2023-04-30T08:24:15.106Z,101194.78
2023-04-30T08:26:42.366Z,101196.13
2023-04-30T08:29:09.333Z,101202.38
2023-04-30T08:31:36.448Z,101203.75
2023-04-30T08:34:03.502Z,101207.50
2023-04-30T08:36:30.480Z,101206.97
2023-04-30T08:38:57.696Z,101215.50
2023-04-30T08:41:27.184Z,101215.19
2023-04-30T08:43:54.282Z,101221.38
2023-04-30T08:46:23.383Z,101213.75
2023-04-30T08:48:50.867Z,101213.88
2023-04-30T08:51:18.151Z,101222.81
2023-04-30T08:53:47.145Z,101213.91
2023-04-30T08:56:14.351Z,101212.88
2023-04-30T08:58:41.435Z,101219.75
2023-04-30T09:01:10.358Z,101208.22
2023-04-30T09:03:38.032Z,101224.50
2023-04-30T09:06:05.282Z,101219.47
2023-04-30T09:08:49.118Z,101227.41
2023-04-30T09:11:30.412Z,101226.69
2023-04-30T09:14:02.260Z,101228.94
2023-04-30T09:16:44.704Z,101231.72
2023-04-30T09:19:25.070Z,101231.69
2023-04-30T09:21:52.335Z,101224.69
2023-04-30T09:24:19.564Z,101220.78
2023-04-30T09:26:48.278Z,101218.03
2023-04-30T09:29:15.866Z,101218.47
2023-04-30T09:31:46.104Z,101215.75
2023-04-30T09:34:14.157Z,101222.19
2023-04-30T09:36:57.215Z,101215.47
2023-04-30T09:39:24.572Z,101214.56
2023-04-30T09:41:52.370Z,101217.53
2023-04-30T09:44:30.236Z,101217.06
2023-04-30T09:46:58.845Z,101215.56
2023-04-30T09:49:31.527Z,101221.00
2023-04-30T09:52:01.102Z,101212.06
2023-04-30T09:54:32.426Z,101214.31
2023-04-30T09:57:03.371Z,101207.28
2023-04-30T09:59:32.747Z,101206.38
2023-04-30T10:02:03.880Z,101212.84
2023-04-30T10:04:34.383Z,101207.47
2023-04-30T10:07:15.885Z,101211.69
2023-04-30T10:09:59.509Z,101206.75
2023-04-30T10:12:34.453Z,101203.28
2023-04-30T10:15:17.743Z,101207.31
2023-04-30T10:17:54.985Z,101209.00
2023-04-30T10:20:23.436Z,101203.38
2023-04-30T10:22:50.591Z,101203.19
2023-04-30T10:25:18.027Z,101189.38
2023-04-30T10:27:46.070Z,101196.66
2023-04-30T10:30:13.915Z,101187.13
2023-04-30T10:33:17.101Z,101187.31
2023-04-30T10:35:46.681Z,101181.47
2023-04-30T10:38:21.932Z,101187.91
2023-04-30T10:40:49.141Z,101197.28
2023-04-30T10:43:22.311Z,101185.75
2023-04-30T10:45:50.174Z,101208.69
2023-04-30T10:48:24.921Z,101192.63
2023-04-30T10:50:57.519Z,101185.94
2023-04-30T10:53:29.445Z,101184.41
2023-04-30T10:56:09.276Z,101180.38
2023-04-30T10:58:40.845Z,101191.94
2023-04-30T11:01:20.862Z,101195.97
2023-04-30T11:04:08.497Z,101181.47
2023-04-30T11:07:02.292Z,101198.72
2023-04-30T11:09:51.462Z,101186.69
2023-04-30T11:12:28.357Z,101172.22
2023-04-30T11:15:01.980Z,101182.78
2023-04-30T11:17:30.190Z,101189.03
2023-04-30T11:20:01.051Z,101194.34
2023-04-30T11:22:30.288Z,101186.19
2023-04-30T11:25:09.864Z,101180.75
2023-04-30T11:27:38.735Z,101170.09
2023-04-30T11:30:11.245Z,101172.13
2023-04-30T11:32:39.615Z,101170.19
2023-04-30T11:35:07.865Z,101164.59
2023-04-30T11:37:38.778Z,101162.88
2023-04-30T11:40:08.831Z,101167.56
2023-04-30T11:42:35.935Z,101168.78
2023-04-30T11:45:08.609Z,101164.50
2023-04-30T11:47:45.937Z,101164.47
2023-04-30T11:50:17.173Z,101164.81
2023-04-30T11:52:50.328Z,101157.59
2023-04-30T11:55:19.609Z,101166.44
2023-04-30T11:57:49.458Z,101154.69
2023-04-30T12:00:19.269Z,101153.66
2023-04-30T12:02:51.928Z,101143.97
2023-04-30T12:05:24.321Z,101156.72
2023-04-30T12:07:59.931Z,101158.53
2023-04-30T12:10:27.568Z,101170.81
2023-04-30T12:12:55.446Z,101147.03
2023-04-30T12:15:28.091Z,101139.13
2023-04-30T12:17:57.575Z,101138.50
2023-04-30T12:20:26.574Z,101135.75
2023-04-30T12:22:54.230Z,101136.09
2023-04-30T12:25:22.612Z,101128.50
2023-04-30T12:27:52.143Z,101131.97
2023-04-30T12:30:25.689Z,101128.13
2023-04-30T12:32:57.208Z,101134.00
2023-04-30T12:35:27.952Z,101129.31
2023-04-30T12:38:09.870Z,101128.00
2023-04-30T12:40:37.609Z,101131.00
2023-04-30T12:43:07.297Z,101134.72
2023-04-30T12:45:55.376Z,101126.53
2023-04-30T12:48:26.366Z,101155.53
2023-04-30T12:50:55.990Z,101146.03
2023-04-30T12:53:24.267Z,101137.31
2023-04-30T12:56:17.267Z,101123.09
2023-04-30T12:58:47.481Z,101122.03
2023-04-30T13:01:18.483Z,101138.34
2023-04-30T13:03:46.108Z,101127.81
2023-04-30T13:06:13.290Z,101125.53
2023-04-30T13:08:53.995Z,101117.28
2023-04-30T13:11:26.698Z,101112.88
2023-04-30T13:13:57.569Z,101115.03
2023-04-30T13:16:25.396Z,101111.56
2023-04-30T13:18:53.148Z,101101.69
2023-04-30T13:21:22.180Z,101107.75
2023-04-30T13:23:53.631Z,101112.13
2023-04-30T13:26:23.608Z,101120.78
2023-04-30T13:28:53.866Z,101108.44
2023-04-30T13:31:21.019Z,101103.72
2023-04-30T13:33:48.808Z,101100.28
2023-04-30T13:36:16.407Z,101099.88
2023-04-30T13:38:44.493Z,101113.28
2023-04-30T13:41:11.630Z,101116.56
2023-04-30T13:43:41.550Z,101115.06
2023-04-30T13:46:14.211Z,101087.16
2023-04-30T13:48:42.976Z,101081.06
2023-04-30T13:51:10.652Z,101086.94
2023-04-30T13:53:40.693Z,101096.81
2023-04-30T13:56:15.177Z,101075.38
2023-04-30T13:58:42.368Z,101092.16
2023-04-30T14:01:10.762Z,101092.59
2023-04-30T14:03:38.137Z,101096.78
2023-04-30T14:06:06.105Z,101095.88
2023-04-30T14:08:33.963Z,101086.31
2023-04-30T14:11:02.088Z,101084.66
2023-04-30T14:13:29.856Z,101085.59
2023-04-30T14:15:57.145Z,101090.28
2023-04-30T14:18:24.684Z,101084.06
2023-04-30T14:20:51.935Z,101098.28
2023-04-30T14:23:18.989Z,101091.59
2023-04-30T14:25:46.558Z,101065.06
2023-04-30T14:28:14.957Z,101068.25
2023-04-30T14:30:44.416Z,101059.03
2023-04-30T14:33:12.656Z,101086.28
2023-04-30T14:35:41.915Z,101071.09
2023-04-30T14:38:09.274Z,101065.66
2023-04-30T14:40:36.579Z,101062.34
2023-04-30T14:43:06.237Z,101065.94
2023-04-30T14:45:33.908Z,101070.59
2023-04-30T14:48:04.010Z,101078.06
2023-04-30T14:50:33.191Z,101080.94
2023-04-30T14:53:00.806Z,101078.13
2023-04-30T14:55:28.247Z,101100.13
2023-04-30T14:57:55.523Z,101103.38
2023-04-30T15:00:34.283Z,101122.75
2023-04-30T15:03:01.745Z,101131.03
2023-04-30T15:05:29.460Z,101125.75
2023-04-30T15:07:56.886Z,101127.19
2023-04-30T15:10:24.034Z,101127.50
2023-04-30T15:12:54.434Z,101127.84
2023-04-30T15:15:28.085Z,101128.50
2023-04-30T15:17:59.218Z,101128.88
2023-04-30T15:20:26.435Z,101126.50
2023-04-30T15:22:55.087Z,101139.56
2023-04-30T15:25:24.249Z,101147.84
2023-04-30T15:28:08.917Z,101145.66
2023-04-30T15:30:36.310Z,101130.75
2023-04-30T15:33:03.586Z,101123.91
2023-04-30T15:35:31.277Z,101130.00
2023-04-30T15:37:58.292Z,101138.97
2023-04-30T15:40:25.459Z,101145.44
2023-04-30T15:42:52.392Z,101149.91
2023-04-30T15:45:20.836Z,101156.38
2023-04-30T15:47:48.272Z,101164.94
2023-04-30T15:50:16.761Z,101156.19
2023-04-30T15:52:43.670Z,101156.72
2023-04-30T15:55:10.642Z,101158.25
2023-04-30T15:57:38.033Z,101136.91
2023-04-30T16:00:05.779Z,101109.94
2023-04-30T16:02:38.867Z,101083.66
2023-04-30T16:05:06.196Z,101057.47
2023-04-30T16:07:33.370Z,101045.63
2023-04-30T16:10:01.338Z,101065.22
2023-04-30T16:12:28.227Z,101091.97
2023-04-30T16:14:56.083Z,101110.06
2023-04-30T16:17:24.445Z,101122.75
2023-04-30T16:19:51.533Z,101126.84
2023-04-30T16:22:18.716Z,101130.03
2023-04-30T16:24:45.793Z,101135.38
2023-04-30T16:27:18.663Z,101143.53
2023-04-30T16:29:45.984Z,101134.38
2023-04-30T16:32:13.452Z,101128.78
2023-04-30T16:34:40.508Z,101122.41
2023-04-30T16:37:08.063Z,101127.09
2023-04-30T16:39:35.702Z,101122.22
2023-04-30T16:42:02.900Z,101124.25
2023-04-30T16:44:29.978Z,101139.78
2023-04-30T16:47:07.588Z,101160.72
2023-04-30T16:49:35.140Z,101177.28
2023-04-30T16:52:05.052Z,101173.25
2023-04-30T16:54:32.044Z,101159.25
2023-04-30T16:57:04.886Z,101170.34
2023-04-30T16:59:32.237Z,101161.22
2023-04-30T17:02:02.899Z,101170.91
2023-04-30T17:04:30.762Z,101166.25
2023-04-30T17:06:59.253Z,101165.66
2023-04-30T17:09:31.614Z,101174.81
2023-04-30T17:11:58.763Z,101175.28
2023-04-30T17:14:27.383Z,101175.41
2023-04-30T17:16:54.895Z,101176.69
2023-04-30T17:19:27.291Z,101182.19
2023-04-30T17:21:55.163Z,101173.16
2023-04-30T17:24:25.244Z,101180.97
2023-04-30T17:26:55.289Z,101180.31
2023-04-30T17:29:23.677Z,101187.13
2023-04-30T17:31:50.866Z,101187.56
2023-04-30T17:34:18.584Z,101192.28
2023-04-30T17:36:50.204Z,101190.97
2023-04-30T17:39:19.180Z,101201.81
2023-04-30T17:41:46.641Z,101201.47
2023-04-30T17:44:13.640Z,101202.56
2023-04-30T17:46:41.443Z,101193.88
2023-04-30T17:49:08.909Z,101204.00
2023-04-30T17:51:36.122Z,101215.31
2023-04-30T17:54:03.161Z,101213.59
2023-04-30T17:56:31.661Z,101214.97
2023-04-30T17:59:00.066Z,101221.44
2023-04-30T18:01:27.865Z,101222.22
2023-04-30T18:03:57.702Z,101224.19
2023-04-30T18:06:27.786Z,101230.22
2023-04-30T18:09:01.475Z,101227.75
2023-04-30T18:11:29.096Z,101228.28
2023-04-30T18:13:56.315Z,101230.03
2023-04-30T18:16:23.688Z,101226.56
2023-04-30T18:18:51.188Z,101218.06
2023-04-30T18:21:18.690Z,101205.69
2023-04-30T18:23:45.636Z,101211.03
2023-04-30T18:26:15.584Z,101213.28
2023-04-30T18:28:43.195Z,101214.06
2023-04-30T18:31:18.716Z,101227.06
2023-04-30T18:33:45.755Z,101237.28
2023-04-30T18:36:13.172Z,101248.34
2023-04-30T18:38:42.780Z,101252.63
2023-04-30T18:41:09.773Z,101256.63
2023-04-30T18:43:37.578Z,101263.47
2023-04-30T18:46:05.911Z,101252.94
2023-04-30T18:48:33.251Z,101258.97
2023-04-30T18:51:00.601Z,101262.03
2023-04-30T18:53:27.735Z,101257.41
2023-04-30T18:55:57.356Z,101262.13
2023-04-30T18:58:24.374Z,101263.25
2023-04-30T19:00:51.617Z,101278.81
2023-04-30T19:03:18.727Z,101285.34
2023-04-30T19:05:45.785Z,101290.13
2023-04-30T19:08:13.008Z,101299.00
2023-04-30T19:10:39.952Z,101303.34
2023-04-30T19:13:07.629Z,101300.59
2023-04-30T19:15:35.519Z,101300.81
2023-04-30T19:18:02.655Z,101304.31
2023-04-30T19:20:29.684Z,101307.81
2023-04-30T19:22:56.834Z,101314.53
2023-04-30T19:25:23.763Z,101317.25
2023-04-30T19:27:51.573Z,101325.44
2023-04-30T19:30:18.512Z,101320.34
2023-04-30T19:32:45.550Z,101333.16
2023-04-30T19:35:12.862Z,101337.41
2023-04-30T19:37:39.861Z,101335.44
2023-04-30T19:40:13.049Z,101343.75
2023-04-30T19:42:40.228Z,101343.13
2023-04-30T19:45:11.402Z,101346.25
2023-04-30T19:47:38.532Z,101349.09
2023-04-30T19:50:06.064Z,101345.59
2023-04-30T19:52:33.242Z,101356.28
2023-04-30T19:55:00.378Z,101356.88
2023-04-30T19:57:28.209Z,101353.38
2023-04-30T19:59:55.471Z,101346.56
2023-04-30T20:02:22.676Z,101346.66
2023-04-30T20:04:49.569Z,101355.25
2023-04-30T20:07:22.684Z,101361.47
2023-04-30T20:09:49.640Z,101365.72
2023-04-30T20:12:16.850Z,101364.16
2023-04-30T20:14:44.024Z,101364.81
2023-04-30T20:17:10.923Z,101369.63
2023-04-30T20:19:38.310Z,101365.69
2023-04-30T20:22:09.866Z,101370.34
2023-04-30T20:24:37.014Z,101364.34
2023-04-30T20:27:04.655Z,101369.47
2023-04-30T20:29:32.129Z,101368.63
2023-04-30T20:31:59.596Z,101367.13
2023-04-30T20:34:26.689Z,101370.94
2023-04-30T20:36:54.119Z,101368.41
2023-04-30T20:39:21.301Z,101366.50
2023-04-30T20:41:48.532Z,101372.06
2023-04-30T20:44:15.521Z,101374.34
2023-04-30T20:46:43.371Z,101369.78
2023-04-30T20:49:11.945Z,101368.66
2023-04-30T20:51:39.528Z,101359.34
2023-04-30T20:54:08.838Z,101367.97
2023-04-30T20:56:36.014Z,101364.94
2023-04-30T20:59:04.968Z,101373.72
2023-04-30T21:01:32.048Z,101368.03
2023-04-30T21:04:00.774Z,101369.75
2023-04-30T21:06:28.263Z,101368.59
2023-04-30T21:08:55.441Z,101364.97
2023-04-30T21:11:22.491Z,101371.31
2023-04-30T21:13:51.242Z,101365.03
2023-04-30T21:16:18.841Z,101373.56
2023-04-30T21:18:46.394Z,101370.06
2023-04-30T21:21:13.769Z,101369.47
2023-04-30T21:23:41.475Z,101362.09
2023-04-30T21:26:08.425Z,101368.88
2023-04-30T21:28:35.552Z,101365.19
2023-04-30T21:31:07.670Z,101371.84
2023-04-30T21:33:38.977Z,101369.66
2023-04-30T21:36:06.396Z,101371.53
2023-04-30T21:38:38.017Z,101374.38
2023-04-30T21:41:07.858Z,101373.50
2023-04-30T21:43:35.171Z,101378.53
2023-04-30T21:46:03.299Z,101375.69
2023-04-30T21:48:31.108Z,101373.97
2023-04-30T21:50:58.120Z,101367.56
2023-04-30T21:53:25.033Z,101366.25
2023-04-30T21:55:54.815Z,101368.28
2023-04-30T21:58:21.939Z,101366.25
2023-04-30T22:00:49.727Z,101352.59
2023-04-30T22:03:16.847Z,101350.19
2023-04-30T22:05:44.268Z,101345.78
2023-04-30T22:08:13.821Z,101355.75
2023-04-30T22:10:40.882Z,101361.56
2023-04-30T22:13:07.902Z,101358.84
2023-04-30T22:15:46.967Z,101357.13
2023-04-30T22:18:14.933Z,101356.28
2023-04-30T22:20:41.907Z,101353.06
2023-04-30T22:23:08.893Z,101352.97
2023-04-30T22:25:36.273Z,101347.84
2023-04-30T22:28:03.435Z,101347.56
2023-04-30T22:30:30.596Z,101345.53
2023-04-30T22:33:01.013Z,101345.53
2023-04-30T22:35:28.387Z,101342.53
2023-04-30T22:37:55.688Z,101344.53
2023-04-30T22:40:23.210Z,101351.47
2023-04-30T22:42:50.372Z,101344.94
2023-04-30T22:45:17.686Z,101344.09
2023-04-30T22:47:45.935Z,101335.81
2023-04-30T22:50:13.415Z,101338.53
2023-04-30T22:52:40.589Z,101332.41
2023-04-30T22:55:08.400Z,101332.41
2023-04-30T22:57:35.671Z,101325.28
2023-04-30T23:00:04.163Z,101330.69
2023-04-30T23:02:31.254Z,101336.13
2023-04-30T23:04:58.421Z,101338.81
2023-04-30T23:07:25.663Z,101337.09
2023-04-30T23:09:52.754Z,101338.13
2023-04-30T23:12:19.663Z,101331.03
2023-04-30T23:14:46.658Z,101329.31
2023-04-30T23:17:13.568Z,101328.78
2023-04-30T23:19:40.614Z,101326.94
2023-04-30T23:22:07.534Z,101325.22
2023-04-30T23:24:36.391Z,101337.34
2023-04-30T23:27:03.468Z,101325.69
2023-04-30T23:29:30.875Z,101333.66
2023-04-30T23:31:58.236Z,101328.84
2023-04-30T23:34:25.699Z,101331.22
2023-04-30T23:36:52.729Z,101327.41
2023-04-30T23:39:19.787Z,101324.50
2023-04-30T23:41:49.650Z,101327.94
2023-04-30T23:44:16.668Z,101319.81
2023-04-30T23:46:44.005Z,101325.38
2023-04-30T23:49:11.159Z,101322.00
2023-04-30T23:51:38.305Z,101321.13
2023-04-30T23:54:06.097Z,101311.31
2023-04-30T23:56:37.433Z,101315.19
2023-04-30T23:59:04.538Z,101318.31
